Time;durP1;ratioP1;P1;durP2;ratioP2;P2;SDS_P1;SDS_P2;PMS_P1;PMS_P2;Temp;Humidity;BMP_temperature;BMP_pressure;BME280_temperature;BME280_humidity;BME280_pressure;Samples;Min_cycle;Max_cycle;Signal;HPM_P1;HPM_P2
2023/09/16 00:00:49;;;;;;;5.28;3.28;;;;;;;26.31;51.52;98863.53;2051397;28;20594;-47
2023/09/16 00:01:52;;;;;;;4.78;3.22;;;;;;;26.27;52.09;98867.78;2053686;28;20571;-51
2023/09/16 00:02:54;;;;;;;3.15;2.83;;;;;;;26.28;51.98;98872.19;2055191;28;20058;-49
2023/09/16 00:03:55;;;;;;;6.90;3.42;;;;;;;26.27;51.65;98865.06;2051878;28;20140;-48
2023/09/16 00:04:57;;;;;;;3.92;2.72;;;;;;;26.28;51.91;98867.56;2054994;28;20081;-47
2023/09/16 00:05:58;;;;;;;5.65;2.95;;;;;;;26.28;51.99;98874.91;2054452;28;20065;-48
2023/09/16 00:07:00;;;;;;;4.35;3.17;;;;;;;26.26;52.07;98869.69;2053116;28;20105;-48
2023/09/16 00:08:02;;;;;;;3.15;2.95;;;;;;;26.24;52.19;98862.84;2053210;28;20581;-51
2023/09/16 00:09:04;;;;;;;5.38;2.90;;;;;;;26.25;52.23;98867.25;2054500;28;20070;-48
2023/09/16 00:10:06;;;;;;;3.90;3.45;;;;;;;26.25;51.84;98867.25;2054276;28;20158;-49
2023/09/16 00:11:10;;;;;;;3.28;2.75;;;;;;;26.23;51.90;98861.22;2051050;28;20515;-49
2023/09/16 00:12:13;;;;;;;4.00;3.17;;;;;;;26.22;52.26;98859.59;2047126;28;20133;-48
2023/09/16 00:13:15;;;;;;;3.72;2.70;;;;;;;26.21;51.82;98861.44;2045246;28;20425;-48
2023/09/16 00:14:18;;;;;;;3.75;3.00;;;;;;;26.21;52.27;98855.19;2051250;28;20061;-48
2023/09/16 00:15:21;;;;;;;3.55;2.58;;;;;;;26.23;51.78;98855.78;2052959;28;20583;-48
2023/09/16 00:16:24;;;;;;;6.38;3.35;;;;;;;26.22;52.11;98857.69;2055725;28;20094;-49
2023/09/16 00:17:26;;;;;;;5.28;3.13;;;;;;;26.25;51.73;98857.19;2053774;28;20042;-50
2023/09/16 00:18:28;;;;;;;5.10;3.50;;;;;;;26.22;51.66;98854.97;2054585;28;20534;-47
2023/09/16 00:19:30;;;;;;;4.15;2.67;;;;;;;26.22;52.02;98857.69;2049238;28;20088;-47
2023/09/16 00:20:32;;;;;;;4.28;2.65;;;;;;;26.19;52.17;98860.09;2053892;28;20132;-48
2023/09/16 00:21:34;;;;;;;4.55;2.78;;;;;;;26.16;51.69;98860.53;2053646;28;20605;-47
2023/09/16 00:22:37;;;;;;;3.90;3.50;;;;;;;26.13;52.48;98855.59;2052883;28;20296;-47
2023/09/16 00:23:38;;;;;;;3.28;2.92;;;;;;;26.09;52.54;98855.28;2054978;28;20939;-47
2023/09/16 00:24:41;;;;;;;4.85;2.85;;;;;;;26.13;52.31;98861.03;2056607;28;22234;-49
2023/09/16 00:25:42;;;;;;;5.28;3.70;;;;;;;26.12;52.05;98859.41;2054117;28;20039;-48
2023/09/16 00:26:44;;;;;;;3.78;3.28;;;;;;;26.15;52.23;98864.34;2052506;28;20506;-47
2023/09/16 00:27:45;;;;;;;5.47;3.10;;;;;;;26.12;52.09;98862.13;2052580;28;20188;-49
2023/09/16 00:28:48;;;;;;;4.13;3.50;;;;;;;26.06;52.40;98869.38;2054640;28;20130;-51
2023/09/16 00:29:49;;;;;;;4.50;3.58;;;;;;;26.01;52.41;98869.28;2056344;28;20058;-49
2023/09/16 00:30:51;;;;;;;6.45;3.45;;;;;;;25.96;52.90;98863.75;2055172;28;20065;-48
2023/09/16 00:31:52;;;;;;;3.47;2.85;;;;;;;25.95;52.69;98867.56;2053443;28;20057;-48
2023/09/16 00:32:56;;;;;;;4.22;2.88;;;;;;;25.95;52.48;98868.38;2053255;28;20394;-47
2023/09/16 00:33:57;;;;;;;5.97;3.17;;;;;;;25.91;52.63;98866.38;2055492;28;20082;-50
2023/09/16 00:34:59;;;;;;;6.40;3.38;;;;;;;25.89;52.77;98863.94;2056350;28;20064;-49
2023/09/16 00:36:00;;;;;;;5.25;3.20;;;;;;;25.93;52.95;98859.63;2048437;28;20210;-48
2023/09/16 00:37:03;;;;;;;3.75;3.03;;;;;;;25.97;52.66;98860.81;2052165;28;20046;-51
2023/09/16 00:38:04;;;;;;;4.68;3.00;;;;;;;25.97;52.67;98863.53;2055655;28;20050;-48
2023/09/16 00:39:06;;;;;;;8.75;4.55;;;;;;;25.94;52.57;98860.50;2053582;28;20486;-48
2023/09/16 00:40:08;;;;;;;4.15;3.05;;;;;;;25.94;52.64;98869.47;2053623;28;20082;-50
2023/09/16 00:41:11;;;;;;;4.65;3.85;;;;;;;25.96;52.74;98859.16;2053068;28;20065;-48
2023/09/16 00:42:12;;;;;;;9.38;3.67;;;;;;;26.03;52.53;98859.81;2051647;28;20162;-48
2023/09/16 00:43:14;;;;;;;4.88;2.97;;;;;;;26.04;52.03;98856.03;2054436;28;20054;-47
2023/09/16 00:44:15;;;;;;;4.78;3.05;;;;;;;26.06;52.27;98855.78;2056220;28;20074;-48
2023/09/16 00:45:18;;;;;;;4.50;2.90;;;;;;;26.08;52.42;98859.91;2055123;28;20046;-48
2023/09/16 00:46:19;;;;;;;5.97;3.83;;;;;;;26.05;52.34;98857.69;2051081;28;20181;-48
2023/09/16 00:47:21;;;;;;;4.70;2.70;;;;;;;26.04;52.20;98858.75;2056640;28;20053;-48
2023/09/16 00:48:23;;;;;;;6.50;3.35;;;;;;;26.04;52.27;98856.03;2055133;28;20050;-51
2023/09/16 00:49:30;;;;;;;3.30;2.90;;;;;;;26.00;52.01;98860.31;2055614;28;20078;-48
2023/09/16 00:50:31;;;;;;;3.42;2.88;;;;;;;25.94;52.18;98853.16;2049986;28;20051;-49
2023/09/16 00:51:34;;;;;;;5.28;3.25;;;;;;;25.93;52.09;98851.50;2053362;28;21120;-47
2023/09/16 00:52:37;;;;;;;6.03;3.40;;;;;;;25.92;52.13;98851.75;2055229;28;20512;-48
2023/09/16 00:53:40;;;;;;;6.18;3.78;;;;;;;25.87;52.48;98862.53;2052639;28;20368;-49
2023/09/16 00:54:41;;;;;;;3.83;3.38;;;;;;;25.84;52.72;98855.69;2055035;28;20070;-48
2023/09/16 00:55:45;;;;;;;7.03;3.35;;;;;;;25.81;52.40;98859.69;2052869;28;20050;-47
2023/09/16 00:56:47;;;;;;;8.13;3.75;;;;;;;25.78;52.90;98853.94;2050741;28;20054;-47
2023/09/16 00:57:50;;;;;;;6.07;3.10;;;;;;;25.78;52.69;98854.75;2054699;28;20042;-49
2023/09/16 00:58:52;;;;;;;4.28;3.17;;;;;;;25.80;52.96;98857.25;2052135;28;20412;-47
2023/09/16 00:59:53;;;;;;;3.60;3.15;;;;;;;25.81;52.55;98853.44;2051805;28;20137;-48
2023/09/16 01:00:56;;;;;;;6.95;3.35;;;;;;;25.81;52.63;98856.97;2049988;28;20054;-47
2023/09/16 01:01:57;;;;;;;5.45;3.10;;;;;;;25.84;52.50;98848.34;2044957;28;20134;-48
2023/09/16 01:02:59;;;;;;;3.72;3.22;;;;;;;25.85;52.30;98854.59;2045203;28;20602;-47
2023/09/16 01:04:03;;;;;;;7.82;3.25;;;;;;;25.90;52.74;98856.59;2043663;28;20068;-48
2023/09/16 01:05:12;;;;;;;5.45;3.53;;;;;;;25.91;52.25;98858.25;2045605;28;20089;-47
2023/09/16 01:06:16;;;;;;;3.47;3.17;;;;;;;25.85;52.71;98851.91;2045139;28;20066;-48
2023/09/16 01:07:18;;;;;;;3.60;3.03;;;;;;;25.84;52.83;98853.78;2045842;28;20047;-48
2023/09/16 01:08:19;;;;;;;6.45;3.38;;;;;;;25.88;52.44;98856.84;2037645;28;22122;-48
2023/09/16 01:09:22;;;;;;;4.85;3.85;;;;;;;25.90;52.50;98851.97;2044266;28;20583;-49
2023/09/16 01:10:23;;;;;;;4.25;3.08;;;;;;;25.94;52.45;98853.16;2040064;28;20105;-49
2023/09/16 01:11:25;;;;;;;4.78;3.63;;;;;;;25.96;52.42;98855.59;2044510;28;20047;-48
2023/09/16 01:12:27;;;;;;;3.67;3.38;;;;;;;25.95;52.72;98853.97;2045880;28;20057;-49
2023/09/16 01:13:29;;;;;;;7.00;3.90;;;;;;;25.94;52.53;98855.88;2044293;28;20086;-47
2023/09/16 01:14:30;;;;;;;5.05;3.33;;;;;;;25.93;52.34;98856.94;2054312;28;20077;-51
2023/09/16 01:15:38;;;;;;;4.50;3.08;;;;;;;25.92;52.88;98860.72;2051803;28;20046;-47
2023/09/16 01:16:46;;;;;;;4.22;3.03;;;;;;;25.89;52.83;98861.22;2054785;28;20058;-48
2023/09/16 01:17:55;;;;;;;8.80;3.60;;;;;;;25.87;53.13;98860.63;2054676;28;22165;-50
2023/09/16 01:19:00;;;;;;;6.90;3.30;;;;;;;25.86;52.99;98859.00;2057682;28;20070;-48
2023/09/16 01:20:08;;;;;;;5.43;3.53;;;;;;;25.83;52.84;98852.16;2053069;28;20054;-50
2023/09/16 01:21:10;;;;;;;4.43;3.30;;;;;;;25.84;53.34;98858.41;2051100;28;20062;-48
2023/09/16 01:22:14;;;;;;;8.57;3.97;;;;;;;25.84;53.26;98851.06;2048810;28;20356;-49
2023/09/16 01:23:18;;;;;;;7.80;3.65;;;;;;;25.89;52.90;98860.41;2045613;28;20421;-48
2023/09/16 01:24:23;;;;;;;5.25;3.30;;;;;;;25.91;52.63;98858.25;2045580;28;20773;-50
2023/09/16 01:25:28;;;;;;;5.80;3.65;;;;;;;25.93;52.62;98854.22;2043738;28;20181;-48
2023/09/16 01:26:29;;;;;;;5.47;3.15;;;;;;;25.90;52.64;98851.16;2035949;28;22028;-51
2023/09/16 01:27:31;;;;;;;3.35;3.03;;;;;;;25.91;52.79;98845.50;2043007;28;20079;-48
2023/09/16 01:28:32;;;;;;;8.18;4.18;;;;;;;25.94;52.96;98845.00;2052925;28;20057;-48
2023/09/16 01:29:35;;;;;;;4.43;3.17;;;;;;;25.96;52.43;98840.13;2051953;28;20046;-50
2023/09/16 01:30:44;;;;;;;4.68;3.40;;;;;;;25.95;52.34;98843.91;2051097;28;20082;-48
2023/09/16 01:31:46;;;;;;;4.68;3.50;;;;;;;25.97;52.38;98846.41;2042594;28;20600;-49
2023/09/16 01:32:54;;;;;;;4.55;3.83;;;;;;;25.96;52.96;98851.00;2033289;28;20557;-48
2023/09/16 01:33:57;;;;;;;5.55;3.35;;;;;;;25.98;52.45;98850.75;2042518;28;20422;-48
2023/09/16 01:35:06;;;;;;;3.72;3.20;;;;;;;25.97;52.95;98847.22;2044773;28;20382;-48
2023/09/16 01:36:12;;;;;;;4.65;3.28;;;;;;;25.92;52.41;98849.84;2045641;28;20043;-48
2023/09/16 01:37:18;;;;;;;5.07;3.47;;;;;;;25.90;52.74;98851.16;2041878;28;20212;-48
2023/09/16 01:38:23;;;;;;;5.97;3.47;;;;;;;25.89;52.83;98850.34;2043120;28;20087;-47
2023/09/16 01:39:27;;;;;;;4.30;3.90;;;;;;;25.87;53.21;98851.66;2041374;28;20094;-48
2023/09/16 01:40:30;;;;;;;9.27;3.35;;;;;;;25.87;52.79;98846.22;2040595;28;20081;-47
2023/09/16 01:41:35;;;;;;;6.35;3.40;;;;;;;25.87;53.17;98849.75;2039751;28;20696;-48
2023/09/16 01:42:37;;;;;;;4.68;3.75;;;;;;;25.87;53.29;98841.63;2043233;28;20055;-48
2023/09/16 01:43:40;;;;;;;6.35;3.45;;;;;;;25.88;53.22;98853.31;2047644;28;20050;-49
2023/09/16 01:44:41;;;;;;;5.10;3.22;;;;;;;25.88;52.93;98848.69;2053147;28;21083;-48
2023/09/16 01:45:44;;;;;;;3.85;2.60;;;;;;;25.88;53.00;98853.31;2052929;28;20049;-51
2023/09/16 01:46:45;;;;;;;4.70;2.90;;;;;;;25.90;52.75;98849.28;2051606;28;21501;-48
2023/09/16 01:47:49;;;;;;;7.18;3.63;;;;;;;25.89;53.11;98849.53;2051968;28;20516;-48
2023/09/16 01:48:50;;;;;;;6.93;4.28;;;;;;;25.88;53.10;98854.13;2046848;28;20073;-49
2023/09/16 01:49:52;;;;;;;8.27;3.25;;;;;;;25.84;52.68;98852.97;2053224;28;20061;-48
2023/09/16 01:50:53;;;;;;;4.22;2.88;;;;;;;25.79;53.14;98852.84;2053914;28;20466;-47
2023/09/16 01:51:55;;;;;;;6.85;3.80;;;;;;;25.77;53.19;98852.25;2050664;28;20484;-53
2023/09/16 01:52:56;;;;;;;3.95;2.88;;;;;;;25.76;52.67;98856.88;2055518;28;20081;-52
2023/09/16 01:53:58;;;;;;;4.93;3.38;;;;;;;25.76;52.99;98856.06;2056096;28;22002;-49
2023/09/16 01:54:59;;;;;;;5.68;3.72;;;;;;;25.80;52.92;98854.53;2057098;28;20084;-49
2023/09/16 01:56:04;;;;;;;5.72;3.08;;;;;;;25.84;52.89;98852.97;2058277;28;20077;-46
2023/09/16 01:57:05;;;;;;;3.97;3.08;;;;;;;25.82;52.42;98855.88;2056464;28;20042;-48
2023/09/16 01:58:08;;;;;;;6.05;3.55;;;;;;;25.77;52.89;98858.53;2054569;28;20257;-49
2023/09/16 01:59:09;;;;;;;5.03;3.50;;;;;;;25.73;53.08;98859.28;2052555;28;23318;-48
2023/09/16 02:00:12;;;;;;;5.93;3.65;;;;;;;25.71;52.72;98858.69;2053343;28;20257;-48
2023/09/16 02:01:15;;;;;;;6.28;3.67;;;;;;;25.73;53.12;98857.38;2051072;28;20062;-52
2023/09/16 02:02:16;;;;;;;3.67;3.35;;;;;;;25.76;52.87;98856.88;2053265;28;20054;-54
2023/09/16 02:03:18;;;;;;;3.53;2.90;;;;;;;25.79;52.81;98856.38;2053506;28;20105;-51
2023/09/16 02:04:19;;;;;;;5.70;3.42;;;;;;;25.80;52.56;98854.53;2055398;28;20133;-49
2023/09/16 02:05:21;;;;;;;4.50;3.45;;;;;;;25.79;52.89;98855.56;2052968;28;20077;-46
2023/09/16 02:06:23;;;;;;;4.15;3.22;;;;;;;25.76;52.72;98858.78;2053486;28;20046;-48
2023/09/16 02:07:25;;;;;;;4.63;3.15;;;;;;;25.72;52.68;98854.91;2055442;28;20100;-53
2023/09/16 02:08:26;;;;;;;5.78;3.50;;;;;;;25.72;52.30;98857.63;2053075;28;20078;-47
2023/09/16 02:09:28;;;;;;;3.17;2.58;;;;;;;25.69;52.68;98860.84;2055218;28;20060;-48
2023/09/16 02:10:29;;;;;;;3.83;3.05;;;;;;;25.70;52.81;98857.06;2046962;28;20939;-48
2023/09/16 02:11:33;;;;;;;4.10;3.42;;;;;;;25.73;52.21;98857.38;2052967;28;20060;-55
2023/09/16 02:12:34;;;;;;;6.05;3.28;;;;;;;25.72;52.61;98861.16;2052325;28;20078;-53
2023/09/16 02:13:36;;;;;;;2.90;2.70;;;;;;;25.75;52.26;98862.56;2044282;28;20082;-46
2023/09/16 02:14:38;;;;;;;5.65;3.05;;;;;;;25.79;52.01;98852.84;2041951;28;20054;-49
2023/09/16 02:15:42;;;;;;;3.85;3.33;;;;;;;25.83;51.89;98862.22;2046707;28;20288;-48
2023/09/16 02:16:44;;;;;;;4.80;3.50;;;;;;;25.84;52.18;98863.84;2046021;28;20062;-47
2023/09/16 02:17:46;;;;;;;5.75;3.38;;;;;;;25.82;52.03;98866.75;2045849;28;20138;-49
2023/09/16 02:18:47;;;;;;;3.35;3.05;;;;;;;25.83;51.91;98859.50;2048821;28;20050;-49
2023/09/16 02:19:50;;;;;;;5.53;3.05;;;;;;;25.84;52.20;98861.13;2047501;28;20457;-46
2023/09/16 02:20:51;;;;;;;7.93;2.92;;;;;;;25.83;52.09;98867.66;2046917;28;20142;-52
2023/09/16 02:21:53;;;;;;;4.43;3.33;;;;;;;25.80;51.97;98862.66;2047465;28;20043;-46
2023/09/16 02:22:54;;;;;;;6.57;3.05;;;;;;;25.79;51.85;98861.81;2043436;28;20171;-51
2023/09/16 02:23:56;;;;;;;3.60;2.65;;;;;;;25.74;52.35;98863.63;2044813;28;20097;-51
2023/09/16 02:24:57;;;;;;;3.45;2.55;;;;;;;25.69;51.99;98855.41;2050917;28;20092;-46
2023/09/16 02:26:01;;;;;;;6.43;3.80;;;;;;;25.69;51.89;98866.28;2057523;28;20164;-51
2023/09/16 02:27:04;;;;;;;4.15;2.72;;;;;;;25.66;52.32;98864.03;2054059;28;20622;-53
2023/09/16 02:28:07;;;;;;;6.43;3.35;;;;;;;25.64;52.61;98870.53;2053379;28;20125;-54
2023/09/16 02:29:08;;;;;;;3.50;3.13;;;;;;;25.69;52.33;98863.56;2049931;28;20093;-51
2023/09/16 02:30:10;;;;;;;3.83;2.88;;;;;;;25.69;52.22;98861.66;2043874;28;20065;-52
2023/09/16 02:31:11;;;;;;;3.13;2.75;;;;;;;25.72;51.61;98865.78;2046571;28;20051;-48
2023/09/16 02:32:13;;;;;;;3.25;2.97;;;;;;;25.66;52.25;98851.28;2043623;28;20433;-52
2023/09/16 02:33:14;;;;;;;5.13;3.03;;;;;;;25.67;51.80;98869.22;2047188;28;20524;-52
2023/09/16 02:34:17;;;;;;;3.80;2.60;;;;;;;25.66;52.33;98864.03;2049065;28;20536;-51
2023/09/16 02:35:18;;;;;;;3.85;2.85;;;;;;;25.69;52.06;98852.69;2045642;28;20046;-49
2023/09/16 02:36:20;;;;;;;7.15;2.60;;;;;;;25.71;51.76;98862.22;2048116;28;20149;-54
2023/09/16 02:37:21;;;;;;;3.95;2.65;;;;;;;25.74;51.95;98853.59;2044604;28;20059;-55
2023/09/16 02:38:23;;;;;;;3.10;2.40;;;;;;;25.79;51.85;98858.28;2046165;28;20046;-53
2023/09/16 02:39:24;;;;;;;3.72;2.53;;;;;;;25.78;51.35;98867.53;2044835;28;22033;-51
2023/09/16 02:40:26;;;;;;;2.58;2.38;;;;;;;25.77;51.72;98861.25;2045176;28;20070;-51
2023/09/16 02:41:27;;;;;;;7.00;3.53;;;;;;;25.73;51.42;98856.56;2037898;28;20082;-49
2023/09/16 02:42:31;;;;;;;3.03;2.58;;;;;;;25.75;51.55;98863.41;2043088;28;20142;-53
2023/09/16 02:43:32;;;;;;;4.28;2.60;;;;;;;25.76;51.27;98865.03;2053129;28;20093;-46
2023/09/16 02:44:33;;;;;;;2.58;2.38;;;;;;;25.75;51.80;98863.41;2056660;28;20101;-53
2023/09/16 02:45:40;;;;;;;3.22;2.47;;;;;;;25.64;52.34;98872.44;2051355;28;20055;-52
2023/09/16 02:46:41;;;;;;;3.55;2.72;;;;;;;25.59;52.52;98872.34;2051952;28;20050;-53
2023/09/16 02:47:43;;;;;;;3.90;2.55;;;;;;;25.57;52.39;98867.13;2053194;28;20055;-49
2023/09/16 02:48:44;;;;;;;5.38;2.53;;;;;;;25.63;52.65;98868.91;2052178;28;20132;-52
2023/09/16 02:49:46;;;;;;;6.40;3.17;;;;;;;25.64;52.62;98856.94;2054572;28;20587;-50
2023/09/16 02:50:47;;;;;;;4.65;3.55;;;;;;;25.70;52.15;98862.47;2051365;28;20053;-53
2023/09/16 02:51:50;;;;;;;6.90;2.63;;;;;;;25.70;52.33;98859.75;2053824;28;20895;-54
2023/09/16 02:52:51;;;;;;;3.28;2.42;;;;;;;25.73;52.01;98860.09;2051270;28;20078;-49
2023/09/16 02:53:54;;;;;;;5.25;3.17;;;;;;;25.76;52.17;98864.22;2053588;28;20050;-49
2023/09/16 02:54:55;;;;;;;6.13;2.75;;;;;;;25.76;52.13;98862.31;2055549;28;20046;-51
2023/09/16 02:55:58;;;;;;;2.92;2.40;;;;;;;25.78;52.49;98865.63;2050953;28;20050;-49
2023/09/16 02:56:59;;;;;;;3.58;2.90;;;;;;;25.79;52.38;98861.00;2056521;28;20054;-50
2023/09/16 02:58:03;;;;;;;4.40;2.72;;;;;;;25.81;51.92;98867.03;2051873;28;20089;-55
2023/09/16 02:59:04;;;;;;;4.15;2.80;;;;;;;25.79;52.35;98861.00;2053595;28;20146;-52
2023/09/16 03:00:07;;;;;;;4.68;3.03;;;;;;;25.78;52.10;98862.91;2052615;28;20100;-48
2023/09/16 03:01:10;;;;;;;3.13;2.55;;;;;;;25.80;51.98;98868.09;2054989;28;20090;-50
2023/09/16 03:02:12;;;;;;;6.20;3.17;;;;;;;25.82;52.28;98855.88;2056591;28;20100;-50
2023/09/16 03:03:15;;;;;;;4.28;2.85;;;;;;;25.80;52.29;98862.66;2054045;28;20059;-47
2023/09/16 03:04:16;;;;;;;3.58;3.28;;;;;;;25.78;51.83;98867.53;2053751;28;20104;-46
2023/09/16 03:05:18;;;;;;;3.35;2.45;;;;;;;25.79;51.71;98863.72;2054621;28;20512;-49
2023/09/16 03:06:19;;;;;;;5.03;2.70;;;;;;;25.80;52.15;98866.19;2045368;28;20081;-49
2023/09/16 03:07:21;;;;;;;4.68;3.03;;;;;;;25.80;52.31;98866.19;2053536;28;20054;-54
2023/09/16 03:08:22;;;;;;;6.45;2.97;;;;;;;25.84;52.18;98863.84;2054361;28;20374;-53
2023/09/16 03:09:24;;;;;;;3.38;2.88;;;;;;;25.81;52.25;98870.56;2052463;28;20119;-46
2023/09/16 03:10:25;;;;;;;3.25;2.75;;;;;;;25.80;52.06;98877.06;2051973;28;20118;-46
2023/09/16 03:11:27;;;;;;;3.35;3.03;;;;;;;25.80;51.83;98873.53;2051434;28;20149;-48
2023/09/16 03:12:28;;;;;;;4.10;3.28;;;;;;;25.78;51.83;98883.81;2052550;28;20558;-46
2023/09/16 03:13:31;;;;;;;3.67;3.13;;;;;;;25.77;52.09;98874.84;2051394;28;20050;-46
2023/09/16 03:14:33;;;;;;;4.65;2.88;;;;;;;25.66;52.36;98881.16;2048357;28;20058;-50
2023/09/16 03:15:35;;;;;;;3.22;2.53;;;;;;;25.66;52.72;98883.88;2051918;28;20074;-46
2023/09/16 03:16:38;;;;;;;6.90;3.38;;;;;;;25.64;52.77;98884.13;2054454;28;20046;-50
2023/09/16 03:17:39;;;;;;;3.95;3.05;;;;;;;25.64;52.35;98881.41;2051460;28;20286;-48
2023/09/16 03:18:43;;;;;;;4.70;3.60;;;;;;;25.71;52.61;98888.56;2052893;28;20080;-47
2023/09/16 03:19:45;;;;;;;4.13;3.25;;;;;;;25.73;52.20;98883.72;2054710;28;20587;-49
2023/09/16 03:20:47;;;;;;;3.20;2.90;;;;;;;25.72;52.24;98882.91;2054919;28;20054;-47
2023/09/16 03:21:48;;;;;;;5.47;3.47;;;;;;;25.72;52.31;98882.91;2051272;28;20402;-46
2023/09/16 03:22:50;;;;;;;3.25;2.45;;;;;;;25.73;52.38;98872.84;2052631;28;20043;-48
2023/09/16 03:23:51;;;;;;;4.55;2.90;;;;;;;25.73;52.32;98875.56;2054311;28;20105;-50
2023/09/16 03:24:53;;;;;;;3.72;3.00;;;;;;;25.70;52.46;98871.44;2054820;28;20579;-50
2023/09/16 03:25:54;;;;;;;3.25;2.60;;;;;;;25.72;52.94;98873.94;2051469;28;20543;-48
2023/09/16 03:26:56;;;;;;;4.57;2.70;;;;;;;25.73;52.51;98875.56;2048041;28;20050;-47
2023/09/16 03:27:57;;;;;;;3.08;2.78;;;;;;;25.75;52.72;98873.44;2052936;28;20078;-46
2023/09/16 03:29:01;;;;;;;3.67;2.85;;;;;;;25.75;52.90;98873.44;2051201;28;20061;-48
2023/09/16 03:30:02;;;;;;;4.22;3.00;;;;;;;25.73;52.51;98867.41;2052369;28;20088;-46
2023/09/16 03:31:04;;;;;;;4.63;3.53;;;;;;;25.73;52.33;98872.84;2051100;28;20058;-47
2023/09/16 03:32:06;;;;;;;3.22;2.88;;;;;;;25.78;52.25;98870.22;2049978;28;20077;-47
2023/09/16 03:33:08;;;;;;;6.90;3.30;;;;;;;25.78;52.15;98862.91;2050842;28;20497;-48
2023/09/16 03:34:11;;;;;;;3.53;2.60;;;;;;;25.81;51.96;98867.03;2052463;28;20145;-47
2023/09/16 03:35:12;;;;;;;3.10;2.80;;;;;;;25.80;52.00;98870.81;2054858;28;20085;-51
2023/09/16 03:36:14;;;;;;;4.32;2.78;;;;;;;25.83;52.32;98862.22;2052761;28;20106;-52
2023/09/16 03:37:15;;;;;;;6.15;2.65;;;;;;;25.83;52.42;98864.94;2053271;28;20046;-46
2023/09/16 03:38:18;;;;;;;4.10;2.65;;;;;;;25.83;52.56;98875.78;2047039;28;20191;-48
2023/09/16 03:39:19;;;;;;;3.25;2.67;;;;;;;25.78;52.66;98871.06;2053714;28;20050;-46
2023/09/16 03:40:21;;;;;;;5.57;2.90;;;;;;;25.79;51.93;98874.59;2053439;28;20096;-46
2023/09/16 03:41:23;;;;;;;5.25;3.10;;;;;;;25.82;52.16;98874.09;2052906;28;20085;-50
2023/09/16 03:42:25;;;;;;;4.30;3.90;;;;;;;25.82;52.12;98876.81;2053027;28;20413;-46
2023/09/16 03:43:26;;;;;;;3.33;2.97;;;;;;;25.81;52.08;98872.47;2046439;28;20065;-47
2023/09/16 03:44:30;;;;;;;3.00;2.45;;;;;;;25.80;52.49;98870.81;2051086;28;20501;-46
2023/09/16 03:45:31;;;;;;;3.45;3.15;;;;;;;25.81;52.62;98870.56;2053030;28;20453;-46
2023/09/16 03:46:33;;;;;;;9.55;2.83;;;;;;;25.79;52.59;98872.69;2043505;28;20058;-47
2023/09/16 03:47:34;;;;;;;4.95;3.17;;;;;;;25.76;52.17;98878.63;2035322;28;20097;-46
2023/09/16 03:48:36;;;;;;;4.50;2.95;;;;;;;25.77;52.33;98880.28;2038299;28;20047;-46
2023/09/16 03:49:38;;;;;;;7.07;2.88;;;;;;;25.79;52.30;98871.88;2042847;28;20047;-50
2023/09/16 03:50:40;;;;;;;3.28;2.67;;;;;;;25.80;52.15;98873.53;2044952;28;20050;-48
2023/09/16 03:51:41;;;;;;;2.78;2.58;;;;;;;25.80;52.46;98877.06;2044719;28;21087;-46
2023/09/16 03:52:42;;;;;;;6.85;2.83;;;;;;;25.77;52.60;98876.72;2040928;28;20203;-48
2023/09/16 03:53:44;;;;;;;3.08;2.63;;;;;;;25.81;52.52;98875.19;2043406;28;20074;-45
2023/09/16 03:54:45;;;;;;;5.22;3.00;;;;;;;25.81;52.11;98877.88;2041833;28;20078;-46
2023/09/16 03:55:48;;;;;;;7.85;2.97;;;;;;;25.81;52.18;98872.47;2041799;28;20568;-49
2023/09/16 03:56:49;;;;;;;5.35;2.60;;;;;;;25.78;52.52;98876.47;2044263;28;20052;-47
2023/09/16 03:57:51;;;;;;;4.55;2.80;;;;;;;25.82;52.43;98876.81;2044364;28;20051;-49
2023/09/16 03:58:52;;;;;;;3.33;2.75;;;;;;;25.84;51.89;98874.72;2045256;28;20047;-48
2023/09/16 03:59:55;;;;;;;3.60;2.78;;;;;;;25.81;52.21;98875.19;2043704;28;20101;-47
2023/09/16 04:00:56;;;;;;;2.70;2.47;;;;;;;25.81;52.03;98872.47;2040462;28;20074;-47
2023/09/16 04:01:58;;;;;;;3.97;2.80;;;;;;;25.80;52.61;98871.63;2043920;28;20839;-47
2023/09/16 04:03:00;;;;;;;4.32;3.17;;;;;;;25.81;52.29;98869.75;2041915;28;20105;-47
2023/09/16 04:04:02;;;;;;;8.60;2.95;;;;;;;25.80;52.08;98874.34;2044059;28;20501;-46
2023/09/16 04:05:03;;;;;;;3.08;2.78;;;;;;;25.81;52.27;98873.28;2043183;28;20241;-49
2023/09/16 04:06:06;;;;;;;3.20;2.90;;;;;;;25.77;52.66;98871.28;2037744;28;20062;-49
2023/09/16 04:07:07;;;;;;;3.08;2.80;;;;;;;25.77;52.48;98874.84;2048746;28;20116;-48
2023/09/16 04:08:09;;;;;;;5.55;2.60;;;;;;;25.77;52.33;98863.97;2048857;28;20059;-46
2023/09/16 04:09:10;;;;;;;6.50;3.10;;;;;;;25.82;52.03;98868.66;2048523;28;20287;-46
2023/09/16 04:10:12;;;;;;;4.32;2.40;;;;;;;25.81;52.52;98862.41;2044973;28;21663;-46
2023/09/16 04:11:13;;;;;;;4.93;2.85;;;;;;;25.80;52.56;98863.50;2051547;28;20059;-47
2023/09/16 04:12:15;;;;;;;6.75;3.50;;;;;;;25.79;52.66;98861.81;2047707;28;20406;-46
2023/09/16 04:13:16;;;;;;;5.40;3.03;;;;;;;25.79;52.41;98861.00;2042826;28;20074;-49
2023/09/16 04:14:20;;;;;;;7.05;2.88;;;;;;;25.76;52.31;98858.78;2050484;28;20536;-47
2023/09/16 04:15:22;;;;;;;5.60;3.28;;;;;;;25.78;52.53;98865.63;2050517;28;20084;-49
2023/09/16 04:16:25;;;;;;;3.50;2.33;;;;;;;25.78;52.43;98859.38;2052464;28;20053;-51
2023/09/16 04:17:26;;;;;;;9.43;3.03;;;;;;;25.72;52.88;98860.34;2045649;28;20057;-49
2023/09/16 04:18:29;;;;;;;2.72;2.53;;;;;;;25.72;52.44;98860.34;2048180;28;20050;-50
2023/09/16 04:19:31;;;;;;;6.90;2.78;;;;;;;25.72;52.87;98863.06;2044139;28;20042;-49
2023/09/16 04:20:33;;;;;;;3.20;2.70;;;;;;;25.70;53.06;98867.91;2045423;28;20169;-48
2023/09/16 04:21:34;;;;;;;3.15;2.80;;;;;;;25.70;52.52;98863.31;2049524;28;20088;-48
2023/09/16 04:22:35;;;;;;;3.60;2.90;;;;;;;25.70;52.72;98857.88;2048858;28;20054;-47
2023/09/16 04:23:37;;;;;;;3.95;2.78;;;;;;;25.74;52.78;98858.19;2041146;28;20517;-46
2023/09/16 04:24:38;;;;;;;4.45;2.53;;;;;;;25.72;52.36;98855.75;2042640;28;20410;-48
2023/09/16 04:25:39;;;;;;;5.80;2.90;;;;;;;25.72;52.75;98857.63;2044274;28;20480;-48
2023/09/16 04:26:41;;;;;;;4.00;2.72;;;;;;;25.71;52.79;98864.94;2042403;28;20054;-48
2023/09/16 04:27:42;;;;;;;3.55;2.53;;;;;;;25.72;52.26;98865.78;2043634;28;20113;-48
2023/09/16 04:28:43;;;;;;;6.72;2.72;;;;;;;25.69;52.21;98860.84;2039157;28;20062;-48
2023/09/16 04:29:45;;;;;;;4.00;2.90;;;;;;;25.70;52.16;98865.19;2043684;28;20077;-47
2023/09/16 04:30:49;;;;;;;3.80;2.72;;;;;;;25.73;52.26;98867.41;2044359;28;20489;-47
2023/09/16 04:31:51;;;;;;;4.53;2.50;;;;;;;25.71;52.17;98870.38;2043173;28;20086;-48
2023/09/16 04:32:53;;;;;;;3.80;3.05;;;;;;;25.74;52.00;98869.06;2040456;28;20604;-49
2023/09/16 04:33:55;;;;;;;4.80;2.97;;;;;;;25.75;51.84;98870.72;2045348;28;20350;-47
2023/09/16 04:34:57;;;;;;;4.85;2.47;;;;;;;25.80;51.71;98862.66;2042307;28;20341;-48
2023/09/16 04:35:59;;;;;;;3.85;2.85;;;;;;;25.81;51.83;98867.03;2041207;28;21467;-48
2023/09/16 04:37:02;;;;;;;4.43;2.60;;;;;;;25.82;51.31;98863.22;2043408;28;20050;-50
2023/09/16 04:38:04;;;;;;;3.42;2.63;;;;;;;25.81;51.57;98861.59;2044388;28;20061;-47
2023/09/16 04:39:06;;;;;;;2.83;2.10;;;;;;;25.78;51.50;98864.81;2038908;28;20145;-49
2023/09/16 04:40:10;;;;;;;5.55;2.65;;;;;;;25.73;52.00;98862.00;2038081;28;20546;-48
2023/09/16 04:41:13;;;;;;;3.63;2.83;;;;;;;25.76;51.47;98872.38;2042692;28;22698;-48
2023/09/16 04:42:14;;;;;;;10.52;2.20;;;;;;;25.74;51.44;98875.34;2043216;28;20501;-48
2023/09/16 04:43:15;;;;;;;2.80;2.50;;;;;;;25.78;51.60;98875.66;2038492;28;21556;-48
2023/09/16 04:44:18;;;;;;;2.80;2.13;;;;;;;25.77;51.34;98874.84;2042101;28;20059;-48
2023/09/16 04:45:20;;;;;;;4.45;2.50;;;;;;;25.73;51.68;98872.84;2041674;28;20058;-48
2023/09/16 04:46:24;;;;;;;5.25;2.70;;;;;;;25.76;51.96;98869.66;2041453;28;20050;-47
2023/09/16 04:47:26;;;;;;;2.55;1.90;;;;;;;25.68;51.55;98880.91;2041223;28;20324;-47
2023/09/16 04:48:28;;;;;;;7.60;2.55;;;;;;;25.62;51.76;98877.28;2041822;28;20509;-49
2023/09/16 04:49:29;;;;;;;10.85;3.83;;;;;;;25.61;51.89;98875.63;2043734;28;20104;-46
2023/09/16 04:50:32;;;;;;;5.55;3.08;;;;;;;25.66;51.73;98874.88;2051105;28;20050;-47
2023/09/16 04:51:33;;;;;;;4.03;2.97;;;;;;;25.68;51.70;98876.28;2048852;28;20050;-46
2023/09/16 04:52:37;;;;;;;3.85;2.50;;;;;;;25.72;52.08;98872.03;2049104;28;20223;-46
2023/09/16 04:53:38;;;;;;;4.90;2.13;;;;;;;25.75;51.55;98865.28;2051708;28;20101;-46